sensor_id;sensor_type;location;lat;lon;timestamp;P1;durP1;ratioP1;P2;durP2;ratioP2
69629;SDS011;56857;52.212;5.496;2022-12-07T00:02:12;8.15;;;3.97;;
69629;SDS011;56857;52.212;5.496;2022-12-07T00:04:57;13.57;;;5.95;;
69629;SDS011;56857;52.212;5.496;2022-12-07T00:07:42;9.57;;;5.45;;
69629;SDS011;56857;52.212;5.496;2022-12-07T00:10:27;11.65;;;5.28;;
69629;SDS011;56857;52.212;5.496;2022-12-07T00:13:13;9.80;;;4.90;;
69629;SDS011;56857;52.212;5.496;2022-12-07T00:16:02;10.95;;;3.60;;
69629;SDS011;56857;52.212;5.496;2022-12-07T00:18:48;9.82;;;4.40;;
69629;SDS011;56857;52.212;5.496;2022-12-07T00:21:34;10.48;;;4.53;;
69629;SDS011;56857;52.212;5.496;2022-12-07T00:24:20;7.82;;;3.90;;
69629;SDS011;56857;52.212;5.496;2022-12-07T00:27:05;9.50;;;4.15;;
69629;SDS011;56857;52.212;5.496;2022-12-07T00:29:51;8.48;;;4.35;;
69629;SDS011;56857;52.212;5.496;2022-12-07T00:32:36;8.02;;;3.78;;
69629;SDS011;56857;52.212;5.496;2022-12-07T00:35:21;10.70;;;5.10;;
69629;SDS011;56857;52.212;5.496;2022-12-07T00:38:07;10.10;;;4.70;;
69629;SDS011;56857;52.212;5.496;2022-12-07T00:40:59;9.05;;;3.92;;
69629;SDS011;56857;52.212;5.496;2022-12-07T00:43:47;9.25;;;4.47;;
69629;SDS011;56857;52.212;5.496;2022-12-07T00:46:33;10.23;;;4.72;;
69629;SDS011;56857;52.212;5.496;2022-12-07T00:49:18;16.52;;;5.55;;
69629;SDS011;56857;52.212;5.496;2022-12-07T00:52:04;8.68;;;4.38;;
69629;SDS011;56857;52.212;5.496;2022-12-07T00:54:49;12.40;;;4.80;;
69629;SDS011;56857;52.212;5.496;2022-12-07T00:57:35;10.75;;;5.13;;
69629;SDS011;56857;52.212;5.496;2022-12-07T01:00:21;9.05;;;4.88;;
69629;SDS011;56857;52.212;5.496;2022-12-07T01:03:07;9.05;;;4.95;;
69629;SDS011;56857;52.212;5.496;2022-12-07T01:05:54;9.70;;;4.70;;
69629;SDS011;56857;52.212;5.496;2022-12-07T01:08:41;9.23;;;4.95;;
69629;SDS011;56857;52.212;5.496;2022-12-07T01:11:27;8.85;;;5.97;;
69629;SDS011;56857;52.212;5.496;2022-12-07T01:14:14;12.00;;;5.18;;
69629;SDS011;56857;52.212;5.496;2022-12-07T01:16:59;10.00;;;5.85;;
69629;SDS011;56857;52.212;5.496;2022-12-07T01:19:44;10.73;;;4.88;;
69629;SDS011;56857;52.212;5.496;2022-12-07T01:22:29;10.13;;;6.22;;
69629;SDS011;56857;52.212;5.496;2022-12-07T01:25:15;9.20;;;5.00;;
69629;SDS011;56857;52.212;5.496;2022-12-07T01:28:00;9.80;;;4.38;;
69629;SDS011;56857;52.212;5.496;2022-12-07T01:30:53;9.90;;;4.97;;
69629;SDS011;56857;52.212;5.496;2022-12-07T01:33:51;12.50;;;4.88;;
69629;SDS011;56857;52.212;5.496;2022-12-07T01:36:38;9.07;;;4.97;;
69629;SDS011;56857;52.212;5.496;2022-12-07T01:39:24;12.18;;;5.72;;
69629;SDS011;56857;52.212;5.496;2022-12-07T01:42:12;10.98;;;4.50;;
69629;SDS011;56857;52.212;5.496;2022-12-07T01:48:02;10.43;;;4.25;;
69629;SDS011;56857;52.212;5.496;2022-12-07T01:50:50;12.35;;;4.07;;
69629;SDS011;56857;52.212;5.496;2022-12-07T01:53:38;10.32;;;5.07;;
69629;SDS011;56857;52.212;5.496;2022-12-07T01:56:26;13.90;;;5.40;;
69629;SDS011;56857;52.212;5.496;2022-12-07T01:59:14;9.65;;;4.45;;
69629;SDS011;56857;52.212;5.496;2022-12-07T02:02:01;11.13;;;4.97;;
69629;SDS011;56857;52.212;5.496;2022-12-07T02:04:49;11.07;;;4.20;;
69629;SDS011;56857;52.212;5.496;2022-12-07T02:07:37;11.30;;;4.75;;
69629;SDS011;56857;52.212;5.496;2022-12-07T02:10:27;11.13;;;4.90;;
69629;SDS011;56857;52.212;5.496;2022-12-07T02:31:21;10.13;;;3.75;;
69629;SDS011;56857;52.212;5.496;2022-12-07T02:34:09;11.45;;;3.88;;
69629;SDS011;56857;52.212;5.496;2022-12-07T02:37:07;8.98;;;3.83;;
69629;SDS011;56857;52.212;5.496;2022-12-07T02:40:02;11.60;;;3.42;;
69629;SDS011;56857;52.212;5.496;2022-12-07T02:42:55;9.63;;;3.22;;
69629;SDS011;56857;52.212;5.496;2022-12-07T02:45:49;9.43;;;3.25;;
69629;SDS011;56857;52.212;5.496;2022-12-07T02:48:37;7.70;;;2.95;;
69629;SDS011;56857;52.212;5.496;2022-12-07T02:51:24;11.30;;;3.45;;
69629;SDS011;56857;52.212;5.496;2022-12-07T02:54:11;9.40;;;3.60;;
69629;SDS011;56857;52.212;5.496;2022-12-07T03:00:06;8.43;;;3.17;;
69629;SDS011;56857;52.212;5.496;2022-12-07T03:02:58;11.18;;;3.70;;
69629;SDS011;56857;52.212;5.496;2022-12-07T03:05:51;8.85;;;3.25;;
69629;SDS011;56857;52.212;5.496;2022-12-07T03:08:48;6.78;;;3.55;;
69629;SDS011;56857;52.212;5.496;2022-12-07T03:11:44;7.88;;;2.90;;
69629;SDS011;56857;52.212;5.496;2022-12-07T03:15:34;6.55;;;2.80;;
69629;SDS011;56857;52.212;5.496;2022-12-07T03:18:04;8.02;;;3.03;;
69629;SDS011;56857;52.212;5.496;2022-12-07T03:20:50;9.48;;;2.78;;
69629;SDS011;56857;52.212;5.496;2022-12-07T03:23:40;6.65;;;2.55;;
69629;SDS011;56857;52.212;5.496;2022-12-07T03:26:33;10.30;;;2.83;;
69629;SDS011;56857;52.212;5.496;2022-12-07T03:29:40;8.23;;;2.83;;
69629;SDS011;56857;52.212;5.496;2022-12-07T03:32:33;9.02;;;2.25;;
69629;SDS011;56857;52.212;5.496;2022-12-07T03:35:29;6.28;;;2.60;;
69629;SDS011;56857;52.212;5.496;2022-12-07T03:44:06;6.38;;;2.20;;
69629;SDS011;56857;52.212;5.496;2022-12-07T03:46:56;6.55;;;2.08;;
69629;SDS011;56857;52.212;5.496;2022-12-07T03:49:49;5.70;;;2.13;;
69629;SDS011;56857;52.212;5.496;2022-12-07T03:52:42;7.15;;;2.20;;
69629;SDS011;56857;52.212;5.496;2022-12-07T03:55:34;8.38;;;2.92;;
69629;SDS011;56857;52.212;5.496;2022-12-07T03:58:22;6.40;;;2.72;;
69629;SDS011;56857;52.212;5.496;2022-12-07T04:01:09;7.13;;;2.28;;
69629;SDS011;56857;52.212;5.496;2022-12-07T04:03:55;9.25;;;2.20;;
69629;SDS011;56857;52.212;5.496;2022-12-07T04:06:40;5.57;;;1.75;;
69629;SDS011;56857;52.212;5.496;2022-12-07T04:09:26;11.00;;;1.95;;
69629;SDS011;56857;52.212;5.496;2022-12-07T04:12:11;5.25;;;2.40;;
69629;SDS011;56857;52.212;5.496;2022-12-07T04:14:56;20.45;;;2.95;;
69629;SDS011;56857;52.212;5.496;2022-12-07T04:17:42;8.20;;;2.33;;
69629;SDS011;56857;52.212;5.496;2022-12-07T04:20:27;5.70;;;2.30;;
69629;SDS011;56857;52.212;5.496;2022-12-07T04:23:13;5.93;;;1.85;;
69629;SDS011;56857;52.212;5.496;2022-12-07T04:25:59;5.97;;;2.28;;
69629;SDS011;56857;52.212;5.496;2022-12-07T04:28:44;6.95;;;2.75;;
69629;SDS011;56857;52.212;5.496;2022-12-07T04:31:29;7.10;;;2.38;;
69629;SDS011;56857;52.212;5.496;2022-12-07T04:34:15;6.20;;;2.63;;
69629;SDS011;56857;52.212;5.496;2022-12-07T04:37:02;5.55;;;1.58;;
69629;SDS011;56857;52.212;5.496;2022-12-07T04:39:47;5.00;;;1.63;;
69629;SDS011;56857;52.212;5.496;2022-12-07T04:42:32;8.27;;;1.73;;
69629;SDS011;56857;52.212;5.496;2022-12-07T04:45:17;6.95;;;3.72;;
69629;SDS011;56857;52.212;5.496;2022-12-07T04:48:03;6.50;;;2.53;;
69629;SDS011;56857;52.212;5.496;2022-12-07T04:50:48;7.30;;;2.95;;
69629;SDS011;56857;52.212;5.496;2022-12-07T04:53:34;7.88;;;2.22;;
69629;SDS011;56857;52.212;5.496;2022-12-07T04:56:19;6.72;;;2.25;;
69629;SDS011;56857;52.212;5.496;2022-12-07T04:59:05;7.90;;;2.25;;
69629;SDS011;56857;52.212;5.496;2022-12-07T05:01:52;4.93;;;2.78;;
69629;SDS011;56857;52.212;5.496;2022-12-07T05:04:37;8.52;;;2.05;;
69629;SDS011;56857;52.212;5.496;2022-12-07T05:07:29;6.20;;;2.15;;
69629;SDS011;56857;52.212;5.496;2022-12-07T05:10:14;8.10;;;2.20;;
69629;SDS011;56857;52.212;5.496;2022-12-07T05:12:59;4.40;;;2.10;;
69629;SDS011;56857;52.212;5.496;2022-12-07T05:15:46;6.78;;;1.50;;
69629;SDS011;56857;52.212;5.496;2022-12-07T05:18:32;6.35;;;2.30;;
69629;SDS011;56857;52.212;5.496;2022-12-07T05:21:17;6.72;;;2.15;;
69629;SDS011;56857;52.212;5.496;2022-12-07T05:24:03;8.25;;;2.58;;
69629;SDS011;56857;52.212;5.496;2022-12-07T05:26:49;7.30;;;2.53;;
69629;SDS011;56857;52.212;5.496;2022-12-07T05:29:34;7.88;;;2.03;;
69629;SDS011;56857;52.212;5.496;2022-12-07T05:32:20;8.13;;;2.45;;
69629;SDS011;56857;52.212;5.496;2022-12-07T05:35:05;6.40;;;1.73;;
69629;SDS011;56857;52.212;5.496;2022-12-07T05:37:51;8.00;;;2.35;;
69629;SDS011;56857;52.212;5.496;2022-12-07T05:40:36;8.45;;;1.65;;
69629;SDS011;56857;52.212;5.496;2022-12-07T05:43:22;6.80;;;2.30;;
69629;SDS011;56857;52.212;5.496;2022-12-07T05:46:07;5.57;;;3.13;;
69629;SDS011;56857;52.212;5.496;2022-12-07T05:48:52;6.45;;;2.65;;
69629;SDS011;56857;52.212;5.496;2022-12-07T05:51:38;11.32;;;2.90;;
69629;SDS011;56857;52.212;5.496;2022-12-07T05:54:23;8.73;;;2.30;;
69629;SDS011;56857;52.212;5.496;2022-12-07T05:57:09;11.73;;;4.13;;
69629;SDS011;56857;52.212;5.496;2022-12-07T05:59:54;11.80;;;3.40;;
69629;SDS011;56857;52.212;5.496;2022-12-07T06:02:40;13.23;;;4.68;;
69629;SDS011;56857;52.212;5.496;2022-12-07T06:05:25;15.95;;;4.13;;
69629;SDS011;56857;52.212;5.496;2022-12-07T06:08:10;10.57;;;3.85;;
69629;SDS011;56857;52.212;5.496;2022-12-07T06:10:55;13.95;;;4.07;;
69629;SDS011;56857;52.212;5.496;2022-12-07T06:13:41;11.63;;;4.32;;
69629;SDS011;56857;52.212;5.496;2022-12-07T06:16:26;9.05;;;3.28;;
69629;SDS011;56857;52.212;5.496;2022-12-07T06:19:11;8.35;;;2.30;;
69629;SDS011;56857;52.212;5.496;2022-12-07T06:21:57;6.60;;;1.98;;
69629;SDS011;56857;52.212;5.496;2022-12-07T06:24:42;7.82;;;2.78;;
69629;SDS011;56857;52.212;5.496;2022-12-07T06:27:28;6.78;;;2.65;;
69629;SDS011;56857;52.212;5.496;2022-12-07T06:30:13;4.03;;;1.48;;
69629;SDS011;56857;52.212;5.496;2022-12-07T06:32:58;7.35;;;2.28;;
69629;SDS011;56857;52.212;5.496;2022-12-07T06:35:44;5.80;;;2.03;;
69629;SDS011;56857;52.212;5.496;2022-12-07T06:38:29;11.48;;;1.52;;
69629;SDS011;56857;52.212;5.496;2022-12-07T06:41:15;7.95;;;2.60;;
69629;SDS011;56857;52.212;5.496;2022-12-07T06:44:00;9.40;;;2.75;;
69629;SDS011;56857;52.212;5.496;2022-12-07T06:46:45;10.30;;;2.70;;
69629;SDS011;56857;52.212;5.496;2022-12-07T06:49:31;8.25;;;2.75;;
69629;SDS011;56857;52.212;5.496;2022-12-07T06:52:16;7.47;;;1.90;;
69629;SDS011;56857;52.212;5.496;2022-12-07T06:55:02;8.85;;;3.00;;
69629;SDS011;56857;52.212;5.496;2022-12-07T06:57:47;8.15;;;2.95;;
69629;SDS011;56857;52.212;5.496;2022-12-07T07:00:32;7.28;;;2.72;;
69629;SDS011;56857;52.212;5.496;2022-12-07T07:03:18;11.10;;;2.78;;
69629;SDS011;56857;52.212;5.496;2022-12-07T07:06:04;6.80;;;1.95;;
69629;SDS011;56857;52.212;5.496;2022-12-07T07:08:50;6.40;;;2.83;;
69629;SDS011;56857;52.212;5.496;2022-12-07T07:11:36;9.40;;;2.67;;
69629;SDS011;56857;52.212;5.496;2022-12-07T07:14:22;11.07;;;2.17;;
69629;SDS011;56857;52.212;5.496;2022-12-07T07:17:08;8.40;;;2.83;;
69629;SDS011;56857;52.212;5.496;2022-12-07T07:19:53;8.50;;;3.35;;
69629;SDS011;56857;52.212;5.496;2022-12-07T07:22:38;8.30;;;2.25;;
69629;SDS011;56857;52.212;5.496;2022-12-07T07:25:24;11.25;;;3.47;;
69629;SDS011;56857;52.212;5.496;2022-12-07T07:28:09;11.50;;;3.00;;
69629;SDS011;56857;52.212;5.496;2022-12-07T07:30:55;10.35;;;3.92;;
69629;SDS011;56857;52.212;5.496;2022-12-07T07:33:40;9.23;;;4.30;;
69629;SDS011;56857;52.212;5.496;2022-12-07T07:36:25;7.10;;;2.92;;
69629;SDS011;56857;52.212;5.496;2022-12-07T07:39:11;9.35;;;2.40;;
69629;SDS011;56857;52.212;5.496;2022-12-07T07:41:56;7.43;;;2.80;;
69629;SDS011;56857;52.212;5.496;2022-12-07T07:44:41;5.50;;;2.45;;
69629;SDS011;56857;52.212;5.496;2022-12-07T07:47:26;8.63;;;2.00;;
69629;SDS011;56857;52.212;5.496;2022-12-07T07:50:12;10.18;;;2.65;;
69629;SDS011;56857;52.212;5.496;2022-12-07T07:52:57;7.18;;;2.72;;
69629;SDS011;56857;52.212;5.496;2022-12-07T07:55:52;9.82;;;2.90;;
69629;SDS011;56857;52.212;5.496;2022-12-07T07:58:39;7.75;;;3.80;;
69629;SDS011;56857;52.212;5.496;2022-12-07T08:01:25;8.20;;;3.40;;
69629;SDS011;56857;52.212;5.496;2022-12-07T08:04:20;6.95;;;3.85;;
69629;SDS011;56857;52.212;5.496;2022-12-07T08:07:11;8.45;;;3.67;;
69629;SDS011;56857;52.212;5.496;2022-12-07T08:09:59;9.40;;;2.97;;
69629;SDS011;56857;52.212;5.496;2022-12-07T08:12:52;7.60;;;2.75;;
69629;SDS011;56857;52.212;5.496;2022-12-07T08:15:38;6.80;;;3.15;;
69629;SDS011;56857;52.212;5.496;2022-12-07T08:18:26;12.55;;;3.50;;
69629;SDS011;56857;52.212;5.496;2022-12-07T08:21:11;9.35;;;3.17;;
69629;SDS011;56857;52.212;5.496;2022-12-07T08:24:04;8.13;;;3.35;;
69629;SDS011;56857;52.212;5.496;2022-12-07T08:26:49;7.93;;;2.83;;
69629;SDS011;56857;52.212;5.496;2022-12-07T08:29:37;6.97;;;2.40;;
69629;SDS011;56857;52.212;5.496;2022-12-07T08:32:22;7.75;;;2.90;;
69629;SDS011;56857;52.212;5.496;2022-12-07T08:35:07;8.65;;;3.05;;
69629;SDS011;56857;52.212;5.496;2022-12-07T08:37:53;10.68;;;3.05;;
69629;SDS011;56857;52.212;5.496;2022-12-07T08:40:38;9.32;;;2.92;;
69629;SDS011;56857;52.212;5.496;2022-12-07T08:43:32;8.65;;;3.13;;
69629;SDS011;56857;52.212;5.496;2022-12-07T08:46:21;11.07;;;3.63;;
69629;SDS011;56857;52.212;5.496;2022-12-07T08:49:21;10.95;;;3.40;;
69629;SDS011;56857;52.212;5.496;2022-12-07T08:52:11;10.57;;;3.55;;
69629;SDS011;56857;52.212;5.496;2022-12-07T08:54:57;7.82;;;3.22;;
69629;SDS011;56857;52.212;5.496;2022-12-07T08:57:45;8.55;;;3.80;;
69629;SDS011;56857;52.212;5.496;2022-12-07T09:00:33;8.55;;;3.55;;
69629;SDS011;56857;52.212;5.496;2022-12-07T09:03:18;9.20;;;3.00;;
69629;SDS011;56857;52.212;5.496;2022-12-07T09:06:04;8.20;;;3.60;;
69629;SDS011;56857;52.212;5.496;2022-12-07T09:08:50;8.82;;;3.88;;
69629;SDS011;56857;52.212;5.496;2022-12-07T09:11:37;16.90;;;4.90;;
69629;SDS011;56857;52.212;5.496;2022-12-07T09:14:22;13.75;;;4.40;;
69629;SDS011;56857;52.212;5.496;2022-12-07T09:17:08;11.20;;;4.32;;
69629;SDS011;56857;52.212;5.496;2022-12-07T09:19:55;10.98;;;4.18;;
69629;SDS011;56857;52.212;5.496;2022-12-07T09:22:40;7.53;;;3.28;;
69629;SDS011;56857;52.212;5.496;2022-12-07T09:25:26;8.15;;;3.65;;
69629;SDS011;56857;52.212;5.496;2022-12-07T09:28:11;8.00;;;3.38;;
69629;SDS011;56857;52.212;5.496;2022-12-07T09:30:56;9.15;;;3.03;;
69629;SDS011;56857;52.212;5.496;2022-12-07T09:33:42;12.65;;;3.83;;
69629;SDS011;56857;52.212;5.496;2022-12-07T09:36:27;9.80;;;3.08;;
69629;SDS011;56857;52.212;5.496;2022-12-07T09:39:13;9.63;;;3.83;;
69629;SDS011;56857;52.212;5.496;2022-12-07T09:41:58;8.00;;;3.30;;
69629;SDS011;56857;52.212;5.496;2022-12-07T09:44:47;7.60;;;3.03;;
69629;SDS011;56857;52.212;5.496;2022-12-07T09:47:33;5.65;;;3.03;;
69629;SDS011;56857;52.212;5.496;2022-12-07T09:50:20;5.95;;;2.80;;
69629;SDS011;56857;52.212;5.496;2022-12-07T09:53:14;9.05;;;3.13;;
69629;SDS011;56857;52.212;5.496;2022-12-07T09:56:05;9.77;;;2.55;;
69629;SDS011;56857;52.212;5.496;2022-12-07T09:58:54;10.68;;;4.10;;
69629;SDS011;56857;52.212;5.496;2022-12-07T10:01:44;9.02;;;3.50;;
69629;SDS011;56857;52.212;5.496;2022-12-07T10:04:32;8.65;;;3.25;;
69629;SDS011;56857;52.212;5.496;2022-12-07T10:07:17;7.65;;;3.03;;
69629;SDS011;56857;52.212;5.496;2022-12-07T10:10:03;7.75;;;3.25;;
69629;SDS011;56857;52.212;5.496;2022-12-07T10:13:08;6.28;;;3.47;;
69629;SDS011;56857;52.212;5.496;2022-12-07T10:15:55;9.90;;;2.60;;
69629;SDS011;56857;52.212;5.496;2022-12-07T10:18:43;9.10;;;3.10;;
69629;SDS011;56857;52.212;5.496;2022-12-07T10:21:28;8.77;;;2.80;;
69629;SDS011;56857;52.212;5.496;2022-12-07T10:24:14;9.30;;;3.05;;
69629;SDS011;56857;52.212;5.496;2022-12-07T10:27:00;9.52;;;2.65;;
69629;SDS011;56857;52.212;5.496;2022-12-07T10:29:49;8.38;;;2.63;;
69629;SDS011;56857;52.212;5.496;2022-12-07T10:38:08;8.68;;;2.70;;
69629;SDS011;56857;52.212;5.496;2022-12-07T10:41:05;10.40;;;3.13;;
69629;SDS011;56857;52.212;5.496;2022-12-07T10:43:53;7.30;;;2.38;;
69629;SDS011;56857;52.212;5.496;2022-12-07T10:47:04;7.47;;;2.28;;
69629;SDS011;56857;52.212;5.496;2022-12-07T10:53:02;6.47;;;2.28;;
69629;SDS011;56857;52.212;5.496;2022-12-07T11:06:07;6.10;;;2.20;;
69629;SDS011;56857;52.212;5.496;2022-12-07T11:15:26;7.07;;;2.70;;
69629;SDS011;56857;52.212;5.496;2022-12-07T11:18:29;8.23;;;3.00;;
69629;SDS011;56857;52.212;5.496;2022-12-07T11:27:42;6.20;;;2.65;;
69629;SDS011;56857;52.212;5.496;2022-12-07T11:30:57;5.85;;;2.83;;
69629;SDS011;56857;52.212;5.496;2022-12-07T11:34:05;8.52;;;3.75;;
69629;SDS011;56857;52.212;5.496;2022-12-07T11:36:59;12.32;;;3.42;;
69629;SDS011;56857;52.212;5.496;2022-12-07T11:39:54;7.43;;;2.03;;
69629;SDS011;56857;52.212;5.496;2022-12-07T11:42:46;9.60;;;2.83;;
69629;SDS011;56857;52.212;5.496;2022-12-07T11:45:37;8.27;;;2.08;;
69629;SDS011;56857;52.212;5.496;2022-12-07T11:48:38;8.85;;;3.65;;
69629;SDS011;56857;52.212;5.496;2022-12-07T11:51:28;8.88;;;3.33;;
69629;SDS011;56857;52.212;5.496;2022-12-07T11:54:23;6.78;;;2.25;;
69629;SDS011;56857;52.212;5.496;2022-12-07T11:57:19;16.55;;;3.83;;
69629;SDS011;56857;52.212;5.496;2022-12-07T12:03:04;5.82;;;2.00;;
69629;SDS011;56857;52.212;5.496;2022-12-07T12:05:56;4.80;;;2.00;;
69629;SDS011;56857;52.212;5.496;2022-12-07T12:11:50;9.50;;;2.85;;
69629;SDS011;56857;52.212;5.496;2022-12-07T12:14:42;5.82;;;2.08;;
69629;SDS011;56857;52.212;5.496;2022-12-07T12:20:57;8.75;;;2.60;;
69629;SDS011;56857;52.212;5.496;2022-12-07T12:23:59;8.70;;;2.33;;
69629;SDS011;56857;52.212;5.496;2022-12-07T12:26:50;6.47;;;1.92;;
69629;SDS011;56857;52.212;5.496;2022-12-07T12:29:40;5.15;;;1.60;;
69629;SDS011;56857;52.212;5.496;2022-12-07T12:50:36;9.52;;;2.50;;
69629;SDS011;56857;52.212;5.496;2022-12-07T12:53:23;10.75;;;2.47;;
69629;SDS011;56857;52.212;5.496;2022-12-07T12:59:28;10.93;;;2.63;;
69629;SDS011;56857;52.212;5.496;2022-12-07T13:02:16;11.38;;;3.28;;
69629;SDS011;56857;52.212;5.496;2022-12-07T13:07:57;4.20;;;1.50;;
69629;SDS011;56857;52.212;5.496;2022-12-07T13:10:45;7.18;;;2.45;;
69629;SDS011;56857;52.212;5.496;2022-12-07T13:13:32;6.00;;;2.60;;
69629;SDS011;56857;52.212;5.496;2022-12-07T13:28:18;5.90;;;2.20;;
69629;SDS011;56857;52.212;5.496;2022-12-07T13:34:35;5.53;;;1.88;;
69629;SDS011;56857;52.212;5.496;2022-12-07T13:37:30;7.20;;;3.85;;
69629;SDS011;56857;52.212;5.496;2022-12-07T13:40:18;14.88;;;7.60;;
69629;SDS011;56857;52.212;5.496;2022-12-07T13:43:12;6.00;;;2.22;;
69629;SDS011;56857;52.212;5.496;2022-12-07T13:46:00;8.00;;;3.33;;
69629;SDS011;56857;52.212;5.496;2022-12-07T13:48:47;4.82;;;2.05;;
69629;SDS011;56857;52.212;5.496;2022-12-07T13:51:44;7.97;;;4.03;;
69629;SDS011;56857;52.212;5.496;2022-12-07T13:54:30;6.47;;;2.47;;
69629;SDS011;56857;52.212;5.496;2022-12-07T13:57:16;11.52;;;5.97;;
69629;SDS011;56857;52.212;5.496;2022-12-07T14:00:03;9.23;;;4.88;;
69629;SDS011;56857;52.212;5.496;2022-12-07T14:06:22;9.20;;;4.32;;
69629;SDS011;56857;52.212;5.496;2022-12-07T14:09:19;7.43;;;2.80;;
69629;SDS011;56857;52.212;5.496;2022-12-07T14:12:07;5.13;;;2.50;;
69629;SDS011;56857;52.212;5.496;2022-12-07T14:14:52;8.30;;;3.53;;
69629;SDS011;56857;52.212;5.496;2022-12-07T14:17:38;9.32;;;5.15;;
69629;SDS011;56857;52.212;5.496;2022-12-07T14:20:36;8.65;;;3.22;;
69629;SDS011;56857;52.212;5.496;2022-12-07T14:23:24;6.97;;;4.28;;
69629;SDS011;56857;52.212;5.496;2022-12-07T14:26:19;8.55;;;3.95;;
69629;SDS011;56857;52.212;5.496;2022-12-07T14:32:20;7.43;;;3.50;;
69629;SDS011;56857;52.212;5.496;2022-12-07T14:35:12;4.93;;;2.92;;
69629;SDS011;56857;52.212;5.496;2022-12-07T14:37:58;7.60;;;3.92;;
69629;SDS011;56857;52.212;5.496;2022-12-07T14:40:50;7.97;;;3.00;;
69629;SDS011;56857;52.212;5.496;2022-12-07T14:43:40;7.88;;;4.50;;
69629;SDS011;56857;52.212;5.496;2022-12-07T14:46:25;9.77;;;3.67;;
69629;SDS011;56857;52.212;5.496;2022-12-07T14:49:11;7.82;;;3.22;;
69629;SDS011;56857;52.212;5.496;2022-12-07T14:51:56;10.27;;;4.25;;
69629;SDS011;56857;52.212;5.496;2022-12-07T14:54:43;11.48;;;4.32;;
69629;SDS011;56857;52.212;5.496;2022-12-07T14:57:28;10.00;;;4.03;;
69629;SDS011;56857;52.212;5.496;2022-12-07T15:00:14;9.88;;;2.85;;
69629;SDS011;56857;52.212;5.496;2022-12-07T15:03:00;8.43;;;4.03;;
69629;SDS011;56857;52.212;5.496;2022-12-07T15:05:46;10.43;;;3.95;;
69629;SDS011;56857;52.212;5.496;2022-12-07T15:08:32;10.15;;;3.47;;
69629;SDS011;56857;52.212;5.496;2022-12-07T15:11:18;6.90;;;3.03;;
69629;SDS011;56857;52.212;5.496;2022-12-07T15:14:04;8.57;;;3.88;;
69629;SDS011;56857;52.212;5.496;2022-12-07T15:16:49;8.32;;;3.30;;
69629;SDS011;56857;52.212;5.496;2022-12-07T15:19:34;7.45;;;3.28;;
69629;SDS011;56857;52.212;5.496;2022-12-07T15:22:20;8.35;;;4.30;;
69629;SDS011;56857;52.212;5.496;2022-12-07T15:25:06;6.07;;;2.95;;
69629;SDS011;56857;52.212;5.496;2022-12-07T15:27:53;7.88;;;3.30;;
69629;SDS011;56857;52.212;5.496;2022-12-07T15:30:39;12.50;;;3.55;;
69629;SDS011;56857;52.212;5.496;2022-12-07T15:33:27;11.93;;;4.38;;
69629;SDS011;56857;52.212;5.496;2022-12-07T15:36:19;19.98;;;11.40;;
69629;SDS011;56857;52.212;5.496;2022-12-07T15:39:06;9.95;;;3.58;;
69629;SDS011;56857;52.212;5.496;2022-12-07T15:41:53;14.45;;;7.63;;
69629;SDS011;56857;52.212;5.496;2022-12-07T15:44:38;8.20;;;3.40;;
69629;SDS011;56857;52.212;5.496;2022-12-07T15:47:23;11.32;;;4.47;;
69629;SDS011;56857;52.212;5.496;2022-12-07T15:50:09;9.82;;;4.32;;
69629;SDS011;56857;52.212;5.496;2022-12-07T15:52:57;12.07;;;5.05;;
69629;SDS011;56857;52.212;5.496;2022-12-07T15:55:42;11.50;;;4.60;;
69629;SDS011;56857;52.212;5.496;2022-12-07T15:58:28;7.25;;;4.18;;
69629;SDS011;56857;52.212;5.496;2022-12-07T16:01:17;12.10;;;7.10;;
69629;SDS011;56857;52.212;5.496;2022-12-07T16:04:22;7.25;;;4.20;;
69629;SDS011;56857;52.212;5.496;2022-12-07T16:07:09;10.48;;;4.30;;
69629;SDS011;56857;52.212;5.496;2022-12-07T16:09:54;9.32;;;3.78;;
69629;SDS011;56857;52.212;5.496;2022-12-07T16:12:40;10.68;;;7.28;;
69629;SDS011;56857;52.212;5.496;2022-12-07T16:15:25;8.82;;;5.43;;
69629;SDS011;56857;52.212;5.496;2022-12-07T16:18:10;9.55;;;5.32;;
69629;SDS011;56857;52.212;5.496;2022-12-07T16:21:02;8.57;;;4.05;;
69629;SDS011;56857;52.212;5.496;2022-12-07T16:23:47;9.98;;;3.92;;
69629;SDS011;56857;52.212;5.496;2022-12-07T16:26:33;8.93;;;4.28;;
69629;SDS011;56857;52.212;5.496;2022-12-07T16:29:19;9.68;;;5.03;;
69629;SDS011;56857;52.212;5.496;2022-12-07T16:32:06;8.30;;;4.15;;
69629;SDS011;56857;52.212;5.496;2022-12-07T16:34:52;8.07;;;3.92;;
69629;SDS011;56857;52.212;5.496;2022-12-07T16:37:37;7.63;;;4.32;;
69629;SDS011;56857;52.212;5.496;2022-12-07T16:40:23;10.10;;;4.07;;
69629;SDS011;56857;52.212;5.496;2022-12-07T16:43:08;10.75;;;4.30;;
69629;SDS011;56857;52.212;5.496;2022-12-07T16:45:57;10.38;;;4.45;;
69629;SDS011;56857;52.212;5.496;2022-12-07T16:48:43;11.35;;;5.43;;
69629;SDS011;56857;52.212;5.496;2022-12-07T16:51:28;13.10;;;5.50;;
69629;SDS011;56857;52.212;5.496;2022-12-07T16:54:14;10.65;;;5.28;;
69629;SDS011;56857;52.212;5.496;2022-12-07T16:56:59;8.85;;;4.45;;
69629;SDS011;56857;52.212;5.496;2022-12-07T16:59:45;14.27;;;5.03;;
69629;SDS011;56857;52.212;5.496;2022-12-07T17:02:30;9.65;;;4.80;;
69629;SDS011;56857;52.212;5.496;2022-12-07T17:05:15;11.15;;;5.88;;
69629;SDS011;56857;52.212;5.496;2022-12-07T17:08:01;10.88;;;5.35;;
69629;SDS011;56857;52.212;5.496;2022-12-07T17:10:46;11.93;;;5.47;;
69629;SDS011;56857;52.212;5.496;2022-12-07T17:13:33;11.18;;;5.63;;
69629;SDS011;56857;52.212;5.496;2022-12-07T17:16:18;11.30;;;5.68;;
69629;SDS011;56857;52.212;5.496;2022-12-07T17:19:05;10.63;;;5.90;;
69629;SDS011;56857;52.212;5.496;2022-12-07T17:21:52;10.07;;;5.47;;
69629;SDS011;56857;52.212;5.496;2022-12-07T17:24:37;11.60;;;5.43;;
69629;SDS011;56857;52.212;5.496;2022-12-07T17:27:22;12.38;;;5.63;;
69629;SDS011;56857;52.212;5.496;2022-12-07T17:30:09;11.43;;;6.60;;
69629;SDS011;56857;52.212;5.496;2022-12-07T17:32:55;10.63;;;5.65;;
69629;SDS011;56857;52.212;5.496;2022-12-07T17:35:40;11.65;;;5.45;;
69629;SDS011;56857;52.212;5.496;2022-12-07T17:38:27;11.18;;;5.93;;
69629;SDS011;56857;52.212;5.496;2022-12-07T17:41:18;10.63;;;5.85;;
69629;SDS011;56857;52.212;5.496;2022-12-07T17:44:08;10.93;;;5.78;;
69629;SDS011;56857;52.212;5.496;2022-12-07T17:46:55;10.20;;;7.43;;
69629;SDS011;56857;52.212;5.496;2022-12-07T17:49:41;13.30;;;5.30;;
69629;SDS011;56857;52.212;5.496;2022-12-07T17:52:27;12.50;;;5.45;;
69629;SDS011;56857;52.212;5.496;2022-12-07T17:55:12;13.13;;;4.13;;
69629;SDS011;56857;52.212;5.496;2022-12-07T17:57:58;10.18;;;4.63;;
69629;SDS011;56857;52.212;5.496;2022-12-07T18:00:44;9.25;;;6.30;;
69629;SDS011;56857;52.212;5.496;2022-12-07T18:03:29;11.23;;;5.20;;
69629;SDS011;56857;52.212;5.496;2022-12-07T18:06:14;8.20;;;3.53;;
69629;SDS011;56857;52.212;5.496;2022-12-07T18:08:59;9.43;;;4.57;;
69629;SDS011;56857;52.212;5.496;2022-12-07T18:11:45;11.32;;;5.07;;
69629;SDS011;56857;52.212;5.496;2022-12-07T18:14:31;9.90;;;3.85;;
69629;SDS011;56857;52.212;5.496;2022-12-07T18:17:16;10.65;;;5.28;;
69629;SDS011;56857;52.212;5.496;2022-12-07T18:20:02;9.43;;;5.03;;
69629;SDS011;56857;52.212;5.496;2022-12-07T18:22:49;9.52;;;6.55;;
69629;SDS011;56857;52.212;5.496;2022-12-07T18:25:34;9.20;;;5.35;;
69629;SDS011;56857;52.212;5.496;2022-12-07T18:28:19;9.68;;;4.68;;
69629;SDS011;56857;52.212;5.496;2022-12-07T18:31:04;9.20;;;5.18;;
69629;SDS011;56857;52.212;5.496;2022-12-07T18:33:50;9.75;;;5.82;;
69629;SDS011;56857;52.212;5.496;2022-12-07T18:36:35;11.40;;;6.38;;
69629;SDS011;56857;52.212;5.496;2022-12-07T18:39:20;46.42;;;21.88;;
69629;SDS011;56857;52.212;5.496;2022-12-07T18:42:07;53.80;;;24.35;;
69629;SDS011;56857;52.212;5.496;2022-12-07T18:44:52;21.23;;;11.05;;